createdAt,value
2023-04-08T00:00:27.642Z,25.97
2023-04-08T00:02:55.832Z,23.93
2023-04-08T00:05:24.154Z,22.10
2023-04-08T00:07:52.317Z,22.50
2023-04-08T00:10:20.539Z,22.77
2023-04-08T00:12:50.220Z,23.00
2023-04-08T00:15:18.442Z,24.00
2023-04-08T00:17:46.749Z,25.30
2023-04-08T00:20:14.957Z,25.00
2023-04-08T00:22:43.117Z,24.07
2023-04-08T00:25:11.407Z,25.97
2023-04-08T00:27:39.573Z,21.30
2023-04-08T00:30:10.119Z,22.13
2023-04-08T00:32:38.390Z,25.17
2023-04-08T00:35:06.865Z,23.47
2023-04-08T00:37:35.052Z,23.67
2023-04-08T00:40:03.426Z,26.77
2023-04-08T00:42:32.007Z,23.57
2023-04-08T00:45:00.452Z,24.83
2023-04-08T00:47:30.509Z,26.53
2023-04-08T00:49:58.869Z,25.80
2023-04-08T00:52:27.103Z,23.87
2023-04-08T00:54:55.272Z,23.90
2023-04-08T00:57:23.533Z,26.20
2023-04-08T00:59:51.809Z,26.27
2023-04-08T01:02:24.140Z,28.73
2023-04-08T01:04:56.226Z,26.13
2023-04-08T01:07:26.691Z,27.13
2023-04-08T01:09:56.671Z,28.10
2023-04-08T01:12:28.247Z,26.97
2023-04-08T01:14:58.802Z,27.87
2023-04-08T01:17:26.985Z,30.10
2023-04-08T01:19:59.402Z,28.33
2023-04-08T01:22:29.832Z,30.83
2023-04-08T01:25:01.267Z,26.97
2023-04-08T01:27:32.714Z,28.40
2023-04-08T01:30:01.303Z,31.90
2023-04-08T01:32:30.803Z,30.57
2023-04-08T01:35:00.341Z,27.03
2023-04-08T01:37:30.021Z,26.87
2023-04-08T01:39:59.008Z,27.07
2023-04-08T01:42:27.539Z,28.67
2023-04-08T01:44:58.255Z,27.03
2023-04-08T01:47:27.367Z,28.37
2023-04-08T01:49:55.901Z,27.97
2023-04-08T01:52:25.092Z,29.63
2023-04-08T01:54:53.272Z,28.13
2023-04-08T01:57:24.103Z,26.93
2023-04-08T01:59:53.301Z,27.92
2023-04-08T02:02:24.537Z,28.80
2023-04-08T02:04:52.929Z,27.23
2023-04-08T02:07:21.147Z,30.43
2023-04-08T02:09:49.301Z,29.27
2023-04-08T02:12:17.516Z,31.83
2023-04-08T02:14:45.684Z,30.43
2023-04-08T02:17:15.485Z,32.63
2023-04-08T02:19:48.413Z,33.73
2023-04-08T02:22:19.476Z,33.67
2023-04-08T02:24:48.776Z,31.23
2023-04-08T02:27:18.404Z,31.93
2023-04-08T02:29:47.764Z,28.17
2023-04-08T02:32:16.410Z,33.20
2023-04-08T02:34:46.209Z,30.20
2023-04-08T02:37:14.439Z,34.03
2023-04-08T02:39:42.598Z,33.03
2023-04-08T02:42:11.937Z,33.50
2023-04-08T02:44:40.346Z,31.20
2023-04-08T02:47:08.564Z,31.93
2023-04-08T02:49:36.797Z,32.63
2023-04-08T02:52:06.448Z,31.87
2023-04-08T02:54:34.695Z,34.73
2023-04-08T02:57:03.016Z,33.57
2023-04-08T02:59:31.278Z,35.00
2023-04-08T03:01:59.547Z,36.17
2023-04-08T03:04:27.739Z,37.17
2023-04-08T03:06:56.263Z,36.30
2023-04-08T03:09:25.885Z,37.37
2023-04-08T03:11:54.852Z,35.53
2023-04-08T03:14:23.160Z,36.40
2023-04-08T03:16:51.454Z,37.50
2023-04-08T03:19:19.693Z,36.30
2023-04-08T03:21:47.862Z,38.60
2023-04-08T03:24:16.070Z,37.47
2023-04-08T03:26:45.651Z,38.93
2023-04-08T03:29:13.857Z,38.67
2023-04-08T03:31:42.031Z,38.97
2023-04-08T03:34:10.464Z,40.87
2023-04-08T03:36:38.659Z,37.83
2023-04-08T03:39:06.948Z,37.13
2023-04-08T03:41:35.132Z,36.20
2023-04-08T03:44:04.691Z,39.20
2023-04-08T03:46:32.945Z,38.17
2023-04-08T03:49:01.112Z,37.23
2023-04-08T03:51:29.533Z,37.07
2023-04-08T03:53:57.707Z,38.50
2023-04-08T03:56:26.057Z,38.37
2023-04-08T03:58:54.308Z,37.43
2023-04-08T04:01:23.918Z,39.87
2023-04-08T04:03:52.242Z,39.07
2023-04-08T04:06:20.490Z,37.77
2023-04-08T04:08:50.269Z,39.60
2023-04-08T04:11:18.608Z,39.53
2023-04-08T04:13:46.817Z,36.20
2023-04-08T04:16:15.012Z,37.20
2023-04-08T04:18:44.697Z,40.83
2023-04-08T04:21:12.948Z,40.40
2023-04-08T04:23:41.149Z,40.57
2023-04-08T04:26:10.637Z,42.33
2023-04-08T04:28:38.851Z,40.03
2023-04-08T04:31:07.168Z,37.87
2023-04-08T04:33:35.433Z,40.70
2023-04-08T04:36:05.054Z,38.27
2023-04-08T04:38:33.227Z,40.43
2023-04-08T04:41:01.712Z,34.87
2023-04-08T04:43:30.112Z,36.43
2023-04-08T04:45:58.360Z,37.43
2023-04-08T04:48:26.568Z,38.23
2023-04-08T04:50:57.629Z,39.57
2023-04-08T04:53:27.244Z,39.90
2023-04-08T04:55:55.537Z,42.70
2023-04-08T04:58:23.713Z,41.70
2023-04-08T05:00:51.926Z,44.33
2023-04-08T05:03:20.647Z,41.53
2023-04-08T05:05:52.389Z,44.60
2023-04-08T05:08:20.640Z,43.00
2023-04-08T05:10:51.308Z,43.33
2023-04-08T05:13:19.664Z,40.33
2023-04-08T05:15:48.834Z,39.37
2023-04-08T05:18:17.126Z,40.27
2023-04-08T05:20:45.321Z,38.17
2023-04-08T05:23:13.628Z,37.70
2023-04-08T05:25:41.820Z,41.53
2023-04-08T05:28:11.492Z,38.47
2023-04-08T05:30:39.654Z,37.13
2023-04-08T05:33:07.915Z,39.73
2023-04-08T05:35:37.255Z,40.83
2023-04-08T05:38:06.140Z,36.80
2023-04-08T05:40:34.400Z,38.50
2023-04-08T05:43:02.621Z,38.47
2023-04-08T05:45:32.378Z,38.17
2023-04-08T05:48:00.663Z,39.23
2023-04-08T05:50:28.884Z,37.87
2023-04-08T05:52:57.098Z,38.53
2023-04-08T05:55:25.375Z,37.63
2023-04-08T05:57:53.533Z,37.70
2023-04-08T06:00:21.943Z,36.43
2023-04-08T06:02:51.760Z,38.77
2023-04-08T06:05:20.265Z,36.77
2023-04-08T06:07:48.474Z,35.67
2023-04-08T06:10:17.028Z,37.13
2023-04-08T06:12:45.426Z,35.03
2023-04-08T06:15:13.799Z,37.07
2023-04-08T06:17:42.065Z,40.00
2023-04-08T06:20:11.950Z,35.70
2023-04-08T06:22:40.432Z,33.70
2023-04-08T06:25:08.921Z,35.27
2023-04-08T06:27:37.097Z,35.33
2023-04-08T06:30:05.596Z,36.13
2023-04-08T06:32:33.859Z,37.23
2023-04-08T06:35:02.064Z,36.03
2023-04-08T06:37:31.676Z,36.83
2023-04-08T06:39:59.883Z,34.97
2023-04-08T06:42:28.646Z,33.90
2023-04-08T06:44:56.853Z,33.90
2023-04-08T06:47:25.404Z,36.13
2023-04-08T06:49:54.297Z,37.43
2023-04-08T06:52:22.456Z,37.27
2023-04-08T06:54:52.081Z,40.10
2023-04-08T06:57:20.356Z,40.50
2023-04-08T06:59:48.521Z,39.23
2023-04-08T07:02:16.777Z,36.97
2023-04-08T07:04:46.726Z,37.63
2023-04-08T07:07:15.381Z,37.10
2023-04-08T07:09:45.863Z,34.00
2023-04-08T07:12:15.595Z,35.30
2023-04-08T07:14:43.865Z,34.97
2023-04-08T07:17:12.496Z,36.20
2023-04-08T07:19:41.059Z,37.77
2023-04-08T07:22:09.268Z,34.33
2023-04-08T07:24:37.789Z,33.43
2023-04-08T07:27:06.326Z,32.67
2023-04-08T07:29:35.829Z,34.60
2023-04-08T07:32:04.070Z,32.93
2023-04-08T07:34:32.340Z,35.10
2023-04-08T07:37:00.603Z,32.70
2023-04-08T07:39:29.261Z,37.87
2023-04-08T07:41:57.448Z,33.83
2023-04-08T07:44:25.656Z,37.20
2023-04-08T07:46:55.384Z,35.60
2023-04-08T07:49:23.654Z,35.97
2023-04-08T07:51:51.811Z,36.47
2023-04-08T07:54:20.052Z,39.73
2023-04-08T07:56:48.280Z,36.03
2023-04-08T07:59:16.505Z,36.93
2023-04-08T08:01:44.875Z,36.20
2023-04-08T08:04:14.858Z,36.97
2023-04-08T08:06:43.159Z,37.17
2023-04-08T08:09:11.389Z,37.07
2023-04-08T08:11:39.576Z,37.97
2023-04-08T08:14:07.976Z,37.40
2023-04-08T08:16:36.468Z,37.57
2023-04-08T08:19:07.200Z,35.00
2023-04-08T08:21:38.020Z,36.67
2023-04-08T08:24:06.397Z,40.50
2023-04-08T08:26:36.819Z,35.60
2023-04-08T08:29:06.442Z,36.90
2023-04-08T08:31:34.670Z,37.13
2023-04-08T08:34:03.271Z,35.23
2023-04-08T08:36:32.860Z,38.17
2023-04-08T08:39:03.791Z,34.57
2023-04-08T08:41:35.986Z,37.67
2023-04-08T08:44:04.799Z,34.50
2023-04-08T08:46:33.101Z,36.90
2023-04-08T08:49:01.595Z,34.13
2023-04-08T08:51:30.431Z,36.43
2023-04-08T08:53:58.668Z,35.53
2023-04-08T08:56:28.814Z,33.27
2023-04-08T08:58:56.963Z,35.23
2023-04-08T09:01:35.478Z,35.00
2023-04-08T09:04:11.336Z,35.43
2023-04-08T09:06:40.051Z,31.00
2023-04-08T09:09:10.490Z,31.20
2023-04-08T09:11:41.225Z,30.60
2023-04-08T09:14:19.653Z,30.17
2023-04-08T09:16:48.042Z,33.33
2023-04-08T09:19:16.573Z,31.87
2023-04-08T09:21:44.931Z,29.97
2023-04-08T09:24:30.692Z,27.60
2023-04-08T09:27:00.896Z,30.23
2023-04-08T09:29:33.144Z,28.90
2023-04-08T09:32:03.193Z,30.67
2023-04-08T09:34:33.970Z,29.00
2023-04-08T09:37:02.276Z,32.87
2023-04-08T09:39:30.722Z,29.83
2023-04-08T09:42:01.127Z,30.33
2023-04-08T09:44:31.178Z,30.10
2023-04-08T09:47:06.233Z,28.03
2023-04-08T09:49:36.489Z,26.50
2023-04-08T09:52:08.631Z,26.23
2023-04-08T09:54:40.177Z,27.90
2023-04-08T09:57:11.713Z,26.77
2023-04-08T09:59:40.681Z,22.83
2023-04-08T10:02:11.661Z,24.80
2023-04-08T10:04:41.438Z,23.83
2023-04-08T10:07:11.196Z,22.33
2023-04-08T10:09:41.522Z,22.97
2023-04-08T10:12:11.420Z,22.90
2023-04-08T10:14:40.846Z,22.93
2023-04-08T10:17:28.531Z,21.50
2023-04-08T10:19:58.523Z,21.00
2023-04-08T10:22:45.270Z,21.00
2023-04-08T10:25:34.436Z,19.67
2023-04-08T10:28:24.267Z,19.13
2023-04-08T10:30:52.660Z,20.13
2023-04-08T10:33:23.081Z,19.47
2023-04-08T10:35:52.446Z,19.93
2023-04-08T10:38:21.426Z,18.50
2023-04-08T10:40:49.934Z,19.30
2023-04-08T10:43:19.747Z,20.40
2023-04-08T10:45:51.313Z,19.80
2023-04-08T10:48:20.657Z,19.03
2023-04-08T10:50:55.222Z,19.50
2023-04-08T10:53:30.024Z,20.23
2023-04-08T10:56:06.194Z,20.03
2023-04-08T10:58:36.378Z,18.67
2023-04-08T11:01:06.043Z,19.23
2023-04-08T11:03:34.792Z,18.83
2023-04-08T11:06:03.435Z,18.67
2023-04-08T11:08:32.332Z,18.87
2023-04-08T11:11:01.584Z,18.17
2023-04-08T11:13:30.142Z,17.30
2023-04-08T11:16:00.436Z,16.43
2023-04-08T11:18:29.346Z,17.00
2023-04-08T11:20:58.964Z,16.40
2023-04-08T11:23:28.558Z,17.90
2023-04-08T11:25:57.094Z,16.57
2023-04-08T11:28:25.951Z,16.87
2023-04-08T11:30:54.434Z,17.13
2023-04-08T11:33:27.251Z,15.90
2023-04-08T11:35:56.548Z,14.33
2023-04-08T11:38:25.342Z,15.80
2023-04-08T11:40:56.569Z,15.13
2023-04-08T11:43:24.783Z,14.73
2023-04-08T11:45:52.997Z,15.83
2023-04-08T11:48:21.276Z,13.97
2023-04-08T11:51:04.615Z,14.20
2023-04-08T11:53:32.793Z,14.83
2023-04-08T11:56:17.296Z,13.93
2023-04-08T11:58:45.798Z,13.97
2023-04-08T12:01:14.095Z,14.40
2023-04-08T12:03:55.474Z,14.17
2023-04-08T12:06:27.637Z,14.20
2023-04-08T12:08:56.550Z,14.27
2023-04-08T12:11:24.946Z,13.60
2023-04-08T12:13:53.767Z,13.73
2023-04-08T12:16:22.395Z,14.27
2023-04-08T12:18:50.890Z,13.73
2023-04-08T12:21:19.069Z,14.13
2023-04-08T12:23:48.965Z,13.30
2023-04-08T12:26:17.351Z,12.90
2023-04-08T12:28:45.836Z,12.87
2023-04-08T12:31:14.159Z,12.27
2023-04-08T12:33:42.359Z,12.67
2023-04-08T12:36:13.395Z,13.00
2023-04-08T12:38:42.049Z,11.90
2023-04-08T12:41:11.533Z,12.53
2023-04-08T12:43:40.119Z,10.97
2023-04-08T12:46:08.312Z,12.13
2023-04-08T12:48:36.688Z,12.30
2023-04-08T12:51:04.860Z,11.53
2023-04-08T12:53:33.064Z,11.50
2023-04-08T12:56:01.586Z,10.57
2023-04-08T12:58:31.094Z,11.50
2023-04-08T13:00:59.488Z,10.10
2023-04-08T13:03:30.356Z,9.55
2023-04-08T13:05:59.018Z,10.53
2023-04-08T13:08:27.214Z,10.07
2023-04-08T13:10:55.643Z,9.68
2023-04-08T13:13:24.069Z,12.57
2023-04-08T13:15:53.557Z,49.45
2023-04-08T13:18:21.916Z,8.98
2023-04-08T13:20:50.223Z,9.27
2023-04-08T13:23:18.797Z,9.07
2023-04-08T13:25:47.030Z,10.48
2023-04-08T13:28:15.582Z,10.20
2023-04-08T13:30:43.782Z,9.48
2023-04-08T13:33:13.301Z,10.90
2023-04-08T13:35:41.585Z,12.32
2023-04-08T13:38:09.764Z,11.90
2023-04-08T13:40:38.524Z,11.57
2023-04-08T13:43:07.005Z,11.68
2023-04-08T13:45:35.566Z,11.60
2023-04-08T13:48:04.862Z,11.50
2023-04-08T13:50:34.462Z,11.10
2023-04-08T13:53:02.646Z,10.77
2023-04-08T13:55:31.161Z,10.32
2023-04-08T13:57:59.387Z,12.13
2023-04-08T14:00:28.031Z,11.90
2023-04-08T14:02:56.276Z,10.18
2023-04-08T14:05:24.662Z,10.98
2023-04-08T14:07:54.236Z,10.40
2023-04-08T14:10:22.467Z,9.77
2023-04-08T14:12:50.750Z,10.65
2023-04-08T14:15:19.008Z,10.60
2023-04-08T14:17:47.214Z,10.13
2023-04-08T14:20:15.443Z,9.93
2023-04-08T14:22:43.679Z,10.30
2023-04-08T14:25:13.255Z,11.25
2023-04-08T14:27:54.777Z,10.25
2023-04-08T14:30:26.884Z,10.95
2023-04-08T14:32:55.540Z,12.40
2023-04-08T14:35:23.693Z,10.25
2023-04-08T14:37:51.875Z,10.82
2023-04-08T14:40:21.386Z,10.18
2023-04-08T14:42:49.876Z,10.98
2023-04-08T14:45:18.279Z,12.20
2023-04-08T14:47:47.072Z,10.52
2023-04-08T14:50:16.114Z,10.85
2023-04-08T14:52:45.026Z,11.10
2023-04-08T14:55:13.352Z,10.77
2023-04-08T14:57:42.963Z,11.40
2023-04-08T15:00:11.758Z,11.93
2023-04-08T15:02:40.052Z,11.40
2023-04-08T15:05:08.641Z,10.25
2023-04-08T15:07:36.959Z,10.52
2023-04-08T15:10:05.266Z,10.43
2023-04-08T15:12:34.032Z,11.45
2023-04-08T15:15:04.540Z,10.85
2023-04-08T15:17:33.705Z,9.93
2023-04-08T15:20:02.000Z,11.05
2023-04-08T15:22:30.172Z,11.27
2023-04-08T15:24:58.380Z,11.40
2023-04-08T15:27:26.612Z,12.27
2023-04-08T15:29:54.813Z,12.50
2023-04-08T15:32:24.410Z,11.55
2023-04-08T15:34:52.625Z,12.07
2023-04-08T15:37:22.480Z,11.07
2023-04-08T15:39:50.751Z,12.52
2023-04-08T15:42:18.973Z,16.88
2023-04-08T15:44:47.166Z,11.88
2023-04-08T15:47:16.219Z,11.48
2023-04-08T15:49:45.729Z,11.02
2023-04-08T15:52:13.941Z,12.18
2023-04-08T15:54:42.102Z,12.07
2023-04-08T15:57:10.334Z,12.02
2023-04-08T15:59:38.567Z,12.50
2023-04-08T16:02:06.868Z,12.68
2023-04-08T16:04:35.332Z,12.10
2023-04-08T16:07:05.152Z,12.43
2023-04-08T16:09:33.309Z,11.90
2023-04-08T16:12:01.575Z,11.98
2023-04-08T16:14:29.745Z,11.48
2023-04-08T16:16:58.930Z,14.98
2023-04-08T16:19:27.285Z,12.20
2023-04-08T16:21:55.510Z,13.35
2023-04-08T16:24:25.049Z,12.60
2023-04-08T16:26:53.240Z,15.63
2023-04-08T16:29:22.729Z,12.98
2023-04-08T16:31:53.174Z,14.02
2023-04-08T16:34:22.730Z,11.45
2023-04-08T16:36:51.766Z,11.70
2023-04-08T16:39:19.889Z,12.68
2023-04-08T16:41:49.462Z,13.05
2023-04-08T16:44:17.635Z,14.32
2023-04-08T16:46:45.880Z,12.85
2023-04-08T16:49:15.559Z,12.70
2023-04-08T16:51:45.161Z,13.88
2023-04-08T16:54:13.340Z,12.38
2023-04-08T16:56:44.437Z,13.23
2023-04-08T16:59:14.347Z,13.32
2023-04-08T17:01:42.595Z,11.73
2023-04-08T17:04:10.835Z,13.10
2023-04-08T17:06:39.979Z,13.10
2023-04-08T17:09:09.086Z,12.45
2023-04-08T17:11:37.367Z,11.85
2023-04-08T17:14:05.611Z,12.68
2023-04-08T17:16:35.757Z,12.40
2023-04-08T17:19:03.934Z,12.68
2023-04-08T17:21:32.426Z,13.02
2023-04-08T17:24:00.598Z,13.53
2023-04-08T17:26:29.059Z,12.20
2023-04-08T17:28:57.360Z,12.53
2023-04-08T17:31:25.606Z,12.70
2023-04-08T17:33:55.269Z,12.67
2023-04-08T17:36:23.866Z,15.60
2023-04-08T17:38:52.478Z,13.73
2023-04-08T17:41:38.452Z,16.07
2023-04-08T17:44:08.220Z,14.90
2023-04-08T17:46:36.776Z,15.73
2023-04-08T17:49:06.258Z,15.70
2023-04-08T17:51:34.438Z,15.10
2023-04-08T17:54:02.634Z,16.50
2023-04-08T17:56:31.027Z,15.03
2023-04-08T17:58:59.197Z,14.57
2023-04-08T18:01:27.443Z,14.57
2023-04-08T18:03:56.071Z,14.40
2023-04-08T18:06:25.920Z,14.93
2023-04-08T18:08:54.199Z,14.37
2023-04-08T18:11:24.312Z,14.23
2023-04-08T18:13:52.935Z,13.80
2023-04-08T18:16:21.838Z,12.30
2023-04-08T18:18:50.495Z,12.67
2023-04-08T18:21:18.924Z,12.23
2023-04-08T18:23:48.560Z,11.50
2023-04-08T18:26:16.891Z,11.37
2023-04-08T18:28:45.282Z,11.27
2023-04-08T18:31:13.523Z,12.17
2023-04-08T18:33:41.810Z,10.17
2023-04-08T18:36:10.415Z,10.47
2023-04-08T18:38:40.047Z,10.87
2023-04-08T18:41:10.066Z,11.13
2023-04-08T18:43:38.634Z,10.30
2023-04-08T18:46:07.079Z,11.10
2023-04-08T18:48:35.710Z,12.97
2023-04-08T18:51:04.205Z,12.27
2023-04-08T18:53:32.515Z,11.80
2023-04-08T18:56:00.759Z,12.17
2023-04-08T18:58:31.486Z,11.50
2023-04-08T19:00:59.768Z,11.67
2023-04-08T19:03:28.178Z,11.37
2023-04-08T19:05:56.442Z,10.47
2023-04-08T19:08:24.696Z,10.57
2023-04-08T19:10:52.958Z,11.27
2023-04-08T19:13:22.935Z,11.17
2023-04-08T19:15:52.643Z,11.97
2023-04-08T19:18:20.867Z,11.80
2023-04-08T19:20:49.165Z,12.27
2023-04-08T19:23:18.840Z,12.27
2023-04-08T19:25:47.334Z,12.40
2023-04-08T19:28:15.463Z,12.27
2023-04-08T19:30:43.676Z,13.07
2023-04-08T19:33:13.833Z,12.20
2023-04-08T19:35:42.362Z,12.73
2023-04-08T19:38:11.929Z,12.43
2023-04-08T19:40:40.796Z,13.40
2023-04-08T19:43:09.037Z,13.10
2023-04-08T19:45:37.255Z,14.43
2023-04-08T19:48:05.453Z,13.90
2023-04-08T19:50:35.126Z,13.77
2023-04-08T19:53:03.298Z,14.50
2023-04-08T19:55:31.571Z,14.13
2023-04-08T19:57:59.711Z,13.20
2023-04-08T20:00:29.460Z,13.40
2023-04-08T20:02:57.780Z,14.27
2023-04-08T20:05:26.233Z,15.33
2023-04-08T20:07:55.894Z,14.97
2023-04-08T20:10:24.220Z,14.07
2023-04-08T20:12:53.687Z,14.43
2023-04-08T20:15:25.093Z,15.30
2023-04-08T20:17:54.157Z,15.23
2023-04-08T20:20:22.841Z,14.03
2023-04-08T20:22:51.256Z,15.30
2023-04-08T20:25:20.900Z,14.57
2023-04-08T20:27:49.104Z,15.00
2023-04-08T20:30:17.329Z,15.90
2023-04-08T20:32:45.631Z,14.93
2023-04-08T20:35:14.635Z,16.13
2023-04-08T20:37:42.833Z,14.77
2023-04-08T20:40:11.398Z,16.03
2023-04-08T20:42:40.979Z,17.37
2023-04-08T20:45:10.001Z,16.30
2023-04-08T20:47:38.611Z,18.10
2023-04-08T20:50:07.374Z,19.67
2023-04-08T20:52:35.553Z,16.00
2023-04-08T20:55:03.749Z,20.23
2023-04-08T20:57:31.942Z,17.23
2023-04-08T21:00:01.674Z,16.57
2023-04-08T21:02:30.106Z,17.80
2023-04-08T21:04:58.404Z,16.67
2023-04-08T21:07:26.952Z,17.57
2023-04-08T21:09:55.310Z,16.80
2023-04-08T21:12:23.529Z,24.70
2023-04-08T21:14:51.787Z,18.90
2023-04-08T21:17:21.361Z,17.13
2023-04-08T21:19:49.623Z,18.63
2023-04-08T21:22:17.827Z,20.33
2023-04-08T21:24:46.037Z,18.93
2023-04-08T21:27:14.260Z,19.90
2023-04-08T21:29:42.468Z,19.43
2023-04-08T21:32:10.749Z,19.83
2023-04-08T21:34:40.980Z,19.80
2023-04-08T21:37:09.127Z,19.30
2023-04-08T21:39:37.366Z,19.90
2023-04-08T21:42:05.874Z,19.73
2023-04-08T21:44:34.112Z,20.13
2023-04-08T21:47:02.416Z,19.43
2023-04-08T21:49:30.652Z,20.27
2023-04-08T21:52:00.242Z,19.93
2023-04-08T21:54:28.438Z,20.20
2023-04-08T21:56:56.866Z,21.57
2023-04-08T21:59:25.054Z,21.80
2023-04-08T22:01:53.285Z,20.73
2023-04-08T22:04:21.779Z,21.30
2023-04-08T22:06:51.174Z,20.93
2023-04-08T22:09:20.834Z,21.67
2023-04-08T22:11:49.024Z,22.40
2023-04-08T22:14:17.604Z,21.40
2023-04-08T22:16:45.892Z,21.50
2023-04-08T22:19:14.182Z,25.80
2023-04-08T22:21:42.542Z,21.97
2023-04-08T22:24:10.711Z,22.70
2023-04-08T22:26:40.254Z,22.47
2023-04-08T22:29:08.473Z,22.33
2023-04-08T22:31:36.689Z,22.20
2023-04-08T22:34:04.907Z,22.90
2023-04-08T22:36:33.223Z,21.73
2023-04-08T22:39:01.474Z,21.87
2023-04-08T22:41:29.691Z,22.17
2023-04-08T22:43:59.322Z,22.20
2023-04-08T22:46:27.519Z,22.77
2023-04-08T22:48:55.742Z,22.17
2023-04-08T22:51:23.923Z,22.40
2023-04-08T22:53:52.342Z,21.33
2023-04-08T22:56:21.392Z,22.37
2023-04-08T22:58:49.615Z,22.60
2023-04-08T23:01:22.029Z,22.83
2023-04-08T23:03:50.553Z,23.40
2023-04-08T23:06:18.809Z,23.13
2023-04-08T23:08:46.936Z,23.07
2023-04-08T23:11:15.285Z,22.93
2023-04-08T23:13:43.575Z,22.70
2023-04-08T23:16:11.783Z,24.13
2023-04-08T23:18:41.378Z,23.17
2023-04-08T23:21:09.591Z,24.03
2023-04-08T23:23:37.765Z,24.63
2023-04-08T23:26:06.117Z,24.50
2023-04-08T23:28:34.250Z,25.80
2023-04-08T23:31:05.971Z,24.83
2023-04-08T23:33:34.184Z,23.03
2023-04-08T23:36:07.991Z,24.17
2023-04-08T23:38:36.963Z,26.10
2023-04-08T23:41:05.294Z,24.23
2023-04-08T23:43:33.518Z,23.97
2023-04-08T23:46:01.776Z,22.93
2023-04-08T23:48:29.974Z,23.47
2023-04-08T23:50:58.138Z,23.60
2023-04-08T23:53:27.712Z,23.17
2023-04-08T23:55:55.870Z,22.33
2023-04-08T23:58:24.080Z,22.63
